Terminal Aerodrome Forecast
Issued by NWS Cheyenne, WY

Home | Current Version | Previous Version | Text Only | Print | Product List | Glossary On
Versions: 1 2 3 4 5 6 7 8 9 10 11 12 13 14 15 16 17 18 19 20 21 22 23 24 25 26 27 28 29 30
000
FTUS45 KCYS 302300
TAFCYS
TAF
KCYS 302320Z 3100/3124 21012G26KT P6SM VCTS BKN100CB
     FM310200 25012KT P6SM VCSH SCT050 BKN150
     FM310400 25008KT P6SM SCT150
     FM311500 28015G28KT P6SM OVC150
     FM312100 28018G28KT P6SM VCTS SCT050 BKN080CB=

USA.gov is the U.S. government's official web portal to all federal, state and local government web resources and services.